首页
METAR-TAF:

METAR-TAF

机场 :

杰克逊维尔, 佛罗里达州, 美国

纬度: 30-13-07N, 经度: 081-52-36W, 海拔: 25米

当前天气观测

该预报发布于27分钟前的22:50 UTC
风速6节,风向多变
温度 29°C
湿度 66%
气压 1017 hPa
能見度: 16.1公里
天空无云

METAR: KVQQ 152250Z VRB06KT 10SM CLR 29/22 A3004

时间: 19:17 (23:17 UTC)

预报

该预报发布于2小时和40分钟前的20:37 UTC
预报有效从15日的 21点(UTC)到 16日的 18点(UTC)
风速6节,风向西南
能見度: 10公里
多云层高于6000英尺, 积雨云.
阴天层高于12000英尺
附近有雷暴
从 15日的 2200点(UTC)
风速3节,风向
能見度: 10公里
散云层高于5000英尺
多云层高于12000英尺
多云层高于25000英尺
附近有阵雨
从 16日的 0000点(UTC)
风速2节,风向西南
能見度: 10公里
少量云层高于12000英尺
散云层高于25000英尺
从 16日的 0800点(UTC)
风速节,风向
能見度: 4.8公里
少量云层高于5000英尺
散云层高于12000英尺
散云层高于25000英尺
轻雾
从 16日的 1200点(UTC)
风速3节,风向南转西南
能見度: 10公里
少量云层高于2000英尺
少量云层高于25000英尺

TAF: KVQQ 152037Z 1521/1618 22006KT P6SM VCTS BKN060CB OVC120 FM152200 18003KT P6SM VCSH SCT050 BKN120 BKN250 FM160000 22002KT P6SM FEW120 SCT250 FM160800 00000KT 3SM BR FEW050 SCT120 SCT250 FM161200 21003KT P6SM FEW020 FEW250

超过4000个机场的气象观测和天气预报(METAR&TAF报告)。

可查询的气象台以黄色和红色小点在地图上表示。

将鼠标移到小点上方,可查看气象台名称。

然后点击查看天气观测和预报。

如需切换地图:点击带黑十字的绿色按钮放大地图;点击带横线的绿色按钮缩小地图;或者点击绿色箭头查看邻近地区的地图。


METAR-TAF: